sensor_id;sensor_type;location;lat;lon;timestamp;temperature;humidity
21019;DHT22;10667;51.056;3.732;2023-03-01T00:02:01;4.80;99.90
21019;DHT22;10667;51.056;3.732;2023-03-01T00:04:27;4.80;99.90
21019;DHT22;10667;51.056;3.732;2023-03-01T00:06:53;4.90;99.90
21019;DHT22;10667;51.056;3.732;2023-03-01T00:09:19;4.90;99.90
21019;DHT22;10667;51.056;3.732;2023-03-01T00:11:45;4.90;99.90
21019;DHT22;10667;51.056;3.732;2023-03-01T00:14:11;4.90;99.90
21019;DHT22;10667;51.056;3.732;2023-03-01T00:16:40;4.80;99.90
21019;DHT22;10667;51.056;3.732;2023-03-01T00:19:15;4.90;99.90
21019;DHT22;10667;51.056;3.732;2023-03-01T00:21:41;4.90;99.90
21019;DHT22;10667;51.056;3.732;2023-03-01T00:24:07;4.90;99.90
21019;DHT22;10667;51.056;3.732;2023-03-01T00:26:33;4.90;99.90
21019;DHT22;10667;51.056;3.732;2023-03-01T00:28:59;5.00;99.90
21019;DHT22;10667;51.056;3.732;2023-03-01T00:31:28;4.90;99.90
21019;DHT22;10667;51.056;3.732;2023-03-01T00:33:56;4.90;99.90
21019;DHT22;10667;51.056;3.732;2023-03-01T00:36:23;4.90;99.90
21019;DHT22;10667;51.056;3.732;2023-03-01T00:38:49;5.00;99.90
21019;DHT22;10667;51.056;3.732;2023-03-01T00:41:17;4.90;99.90
21019;DHT22;10667;51.056;3.732;2023-03-01T00:43:43;4.80;99.90
21019;DHT22;10667;51.056;3.732;2023-03-01T00:46:12;4.80;99.90
21019;DHT22;10667;51.056;3.732;2023-03-01T00:48:38;4.80;99.90
21019;DHT22;10667;51.056;3.732;2023-03-01T00:53:31;4.70;99.90
21019;DHT22;10667;51.056;3.732;2023-03-01T00:55:58;4.50;99.90
21019;DHT22;10667;51.056;3.732;2023-03-01T00:58:24;4.40;99.90
21019;DHT22;10667;51.056;3.732;2023-03-01T01:00:49;4.30;99.90
21019;DHT22;10667;51.056;3.732;2023-03-01T01:03:15;4.10;99.90
21019;DHT22;10667;51.056;3.732;2023-03-01T01:05:41;4.20;99.90
21019;DHT22;10667;51.056;3.732;2023-03-01T01:08:07;4.40;99.90
21019;DHT22;10667;51.056;3.732;2023-03-01T01:10:34;4.30;99.90
21019;DHT22;10667;51.056;3.732;2023-03-01T01:13:00;4.30;99.90
21019;DHT22;10667;51.056;3.732;2023-03-01T01:15:27;4.30;99.90
21019;DHT22;10667;51.056;3.732;2023-03-01T01:17:53;4.40;99.90
21019;DHT22;10667;51.056;3.732;2023-03-01T01:20:18;4.40;99.90
21019;DHT22;10667;51.056;3.732;2023-03-01T01:22:44;4.50;99.90
21019;DHT22;10667;51.056;3.732;2023-03-01T01:25:09;4.50;99.90
21019;DHT22;10667;51.056;3.732;2023-03-01T01:27:36;4.50;99.90
21019;DHT22;10667;51.056;3.732;2023-03-01T01:30:03;4.50;99.90
21019;DHT22;10667;51.056;3.732;2023-03-01T01:32:29;4.60;99.90
21019;DHT22;10667;51.056;3.732;2023-03-01T01:34:55;4.70;99.90
21019;DHT22;10667;51.056;3.732;2023-03-01T01:37:21;4.50;99.90
21019;DHT22;10667;51.056;3.732;2023-03-01T01:39:46;4.50;99.90
21019;DHT22;10667;51.056;3.732;2023-03-01T01:42:17;4.40;99.90
21019;DHT22;10667;51.056;3.732;2023-03-01T01:44:46;4.30;99.90
21019;DHT22;10667;51.056;3.732;2023-03-01T01:47:15;4.30;99.90
21019;DHT22;10667;51.056;3.732;2023-03-01T01:49:49;4.30;99.90
21019;DHT22;10667;51.056;3.732;2023-03-01T01:52:36;4.40;99.90
21019;DHT22;10667;51.056;3.732;2023-03-01T01:55:07;4.40;99.90
21019;DHT22;10667;51.056;3.732;2023-03-01T01:57:43;4.40;99.90
21019;DHT22;10667;51.056;3.732;2023-03-01T02:00:14;4.30;99.90
21019;DHT22;10667;51.056;3.732;2023-03-01T02:02:42;4.40;99.90
21019;DHT22;10667;51.056;3.732;2023-03-01T02:05:17;4.30;99.90
21019;DHT22;10667;51.056;3.732;2023-03-01T02:07:46;4.20;99.90
21019;DHT22;10667;51.056;3.732;2023-03-01T02:10:13;4.20;99.90
21019;DHT22;10667;51.056;3.732;2023-03-01T02:12:39;4.30;99.90
21019;DHT22;10667;51.056;3.732;2023-03-01T02:15:06;4.30;99.90
21019;DHT22;10667;51.056;3.732;2023-03-01T02:17:32;4.30;99.90
21019;DHT22;10667;51.056;3.732;2023-03-01T02:22:37;4.20;99.90
21019;DHT22;10667;51.056;3.732;2023-03-01T02:30:23;4.00;99.90
21019;DHT22;10667;51.056;3.732;2023-03-01T02:32:51;4.00;99.90
21019;DHT22;10667;51.056;3.732;2023-03-01T02:35:17;4.00;99.90
21019;DHT22;10667;51.056;3.732;2023-03-01T02:37:44;3.90;99.90
21019;DHT22;10667;51.056;3.732;2023-03-01T02:40:17;3.90;99.90
21019;DHT22;10667;51.056;3.732;2023-03-01T02:42:49;3.80;99.90
21019;DHT22;10667;51.056;3.732;2023-03-01T02:45:16;3.90;99.90
21019;DHT22;10667;51.056;3.732;2023-03-01T02:47:42;3.90;99.90
21019;DHT22;10667;51.056;3.732;2023-03-01T02:54:20;4.00;99.90
21019;DHT22;10667;51.056;3.732;2023-03-01T02:56:19;4.00;99.90
21019;DHT22;10667;51.056;3.732;2023-03-01T02:58:45;4.10;99.90
21019;DHT22;10667;51.056;3.732;2023-03-01T03:01:13;4.00;99.90
21019;DHT22;10667;51.056;3.732;2023-03-01T03:03:40;4.00;99.90
21019;DHT22;10667;51.056;3.732;2023-03-01T03:06:06;4.00;99.90
21019;DHT22;10667;51.056;3.732;2023-03-01T03:08:32;4.10;99.90
21019;DHT22;10667;51.056;3.732;2023-03-01T03:10:58;4.10;99.90
21019;DHT22;10667;51.056;3.732;2023-03-01T03:13:23;4.00;99.90
21019;DHT22;10667;51.056;3.732;2023-03-01T03:15:54;4.00;99.90
21019;DHT22;10667;51.056;3.732;2023-03-01T03:18:21;4.10;99.90
21019;DHT22;10667;51.056;3.732;2023-03-01T03:20:47;4.10;99.90
21019;DHT22;10667;51.056;3.732;2023-03-01T03:23:18;4.10;99.90
21019;DHT22;10667;51.056;3.732;2023-03-01T03:25:44;4.00;99.90
21019;DHT22;10667;51.056;3.732;2023-03-01T03:28:09;3.90;99.90
21019;DHT22;10667;51.056;3.732;2023-03-01T03:30:38;4.00;99.90
21019;DHT22;10667;51.056;3.732;2023-03-01T03:33:05;4.10;99.90
21019;DHT22;10667;51.056;3.732;2023-03-01T03:35:39;4.10;99.90
21019;DHT22;10667;51.056;3.732;2023-03-01T03:38:07;4.10;99.90
21019;DHT22;10667;51.056;3.732;2023-03-01T03:40:44;4.10;99.90
21019;DHT22;10667;51.056;3.732;2023-03-01T03:43:14;3.90;99.90
21019;DHT22;10667;51.056;3.732;2023-03-01T03:45:40;4.00;99.90
21019;DHT22;10667;51.056;3.732;2023-03-01T03:48:08;4.00;99.90
21019;DHT22;10667;51.056;3.732;2023-03-01T03:50:35;4.10;99.90
21019;DHT22;10667;51.056;3.732;2023-03-01T03:53:02;4.00;99.90
21019;DHT22;10667;51.056;3.732;2023-03-01T03:55:28;4.00;99.90
21019;DHT22;10667;51.056;3.732;2023-03-01T03:57:58;4.00;99.90
21019;DHT22;10667;51.056;3.732;2023-03-01T04:00:27;3.80;99.90
21019;DHT22;10667;51.056;3.732;2023-03-01T04:02:53;3.90;99.90
21019;DHT22;10667;51.056;3.732;2023-03-01T04:05:22;3.80;99.90
21019;DHT22;10667;51.056;3.732;2023-03-01T04:07:48;3.80;99.90
21019;DHT22;10667;51.056;3.732;2023-03-01T04:10:18;3.80;99.90
21019;DHT22;10667;51.056;3.732;2023-03-01T04:12:44;3.70;99.90
21019;DHT22;10667;51.056;3.732;2023-03-01T04:15:11;3.80;99.90
21019;DHT22;10667;51.056;3.732;2023-03-01T04:17:44;3.80;99.90
21019;DHT22;10667;51.056;3.732;2023-03-01T04:20:14;3.80;99.90
21019;DHT22;10667;51.056;3.732;2023-03-01T04:22:43;3.80;99.90
21019;DHT22;10667;51.056;3.732;2023-03-01T04:25:12;3.80;99.90
21019;DHT22;10667;51.056;3.732;2023-03-01T04:27:40;3.80;99.90
21019;DHT22;10667;51.056;3.732;2023-03-01T04:30:06;3.80;99.90
21019;DHT22;10667;51.056;3.732;2023-03-01T04:32:33;3.70;99.90
21019;DHT22;10667;51.056;3.732;2023-03-01T04:34:59;3.70;99.90
21019;DHT22;10667;51.056;3.732;2023-03-01T04:37:25;3.50;99.90
21019;DHT22;10667;51.056;3.732;2023-03-01T04:39:51;3.50;99.90
21019;DHT22;10667;51.056;3.732;2023-03-01T04:42:17;3.50;99.90
21019;DHT22;10667;51.056;3.732;2023-03-01T04:44:44;3.50;99.90
21019;DHT22;10667;51.056;3.732;2023-03-01T04:47:10;3.40;99.90
21019;DHT22;10667;51.056;3.732;2023-03-01T04:49:36;3.50;99.90
21019;DHT22;10667;51.056;3.732;2023-03-01T04:52:02;3.40;99.90
21019;DHT22;10667;51.056;3.732;2023-03-01T04:54:29;3.40;99.90
21019;DHT22;10667;51.056;3.732;2023-03-01T04:56:55;3.30;99.90
21019;DHT22;10667;51.056;3.732;2023-03-01T04:59:21;3.20;99.90
21019;DHT22;10667;51.056;3.732;2023-03-01T05:01:48;3.30;99.90
21019;DHT22;10667;51.056;3.732;2023-03-01T05:04:14;3.40;99.90
21019;DHT22;10667;51.056;3.732;2023-03-01T05:06:40;3.30;99.90
21019;DHT22;10667;51.056;3.732;2023-03-01T05:09:06;3.20;99.90
21019;DHT22;10667;51.056;3.732;2023-03-01T05:11:32;3.10;99.90
21019;DHT22;10667;51.056;3.732;2023-03-01T05:14:03;3.20;99.90
21019;DHT22;10667;51.056;3.732;2023-03-01T05:16:30;3.20;99.90
21019;DHT22;10667;51.056;3.732;2023-03-01T05:18:57;3.10;99.90
21019;DHT22;10667;51.056;3.732;2023-03-01T05:21:23;3.10;99.90
21019;DHT22;10667;51.056;3.732;2023-03-01T05:23:48;3.20;99.90
21019;DHT22;10667;51.056;3.732;2023-03-01T05:26:16;3.10;99.90
21019;DHT22;10667;51.056;3.732;2023-03-01T05:28:43;3.10;99.90
21019;DHT22;10667;51.056;3.732;2023-03-01T05:31:09;3.10;99.90
21019;DHT22;10667;51.056;3.732;2023-03-01T05:33:39;3.10;99.90
21019;DHT22;10667;51.056;3.732;2023-03-01T05:36:08;3.00;99.90
21019;DHT22;10667;51.056;3.732;2023-03-01T05:38:35;3.00;99.90
21019;DHT22;10667;51.056;3.732;2023-03-01T05:41:01;3.00;99.90
21019;DHT22;10667;51.056;3.732;2023-03-01T05:43:30;3.00;99.90
21019;DHT22;10667;51.056;3.732;2023-03-01T05:45:59;2.90;99.90
21019;DHT22;10667;51.056;3.732;2023-03-01T05:48:25;2.90;99.90
21019;DHT22;10667;51.056;3.732;2023-03-01T05:50:51;2.90;99.90
21019;DHT22;10667;51.056;3.732;2023-03-01T05:53:19;2.90;99.90
21019;DHT22;10667;51.056;3.732;2023-03-01T05:55:46;2.90;99.90
21019;DHT22;10667;51.056;3.732;2023-03-01T05:58:18;3.00;99.90
21019;DHT22;10667;51.056;3.732;2023-03-01T06:00:46;3.00;99.90
21019;DHT22;10667;51.056;3.732;2023-03-01T06:03:14;3.00;99.90
21019;DHT22;10667;51.056;3.732;2023-03-01T06:05:40;3.00;99.90
21019;DHT22;10667;51.056;3.732;2023-03-01T06:08:06;3.10;99.90
21019;DHT22;10667;51.056;3.732;2023-03-01T06:10:32;3.10;99.90
21019;DHT22;10667;51.056;3.732;2023-03-01T06:12:57;3.10;99.90
21019;DHT22;10667;51.056;3.732;2023-03-01T06:15:25;3.00;99.90
21019;DHT22;10667;51.056;3.732;2023-03-01T06:17:51;3.00;99.90
21019;DHT22;10667;51.056;3.732;2023-03-01T06:20:21;3.00;99.90
21019;DHT22;10667;51.056;3.732;2023-03-01T06:22:48;3.00;99.90
21019;DHT22;10667;51.056;3.732;2023-03-01T06:25:19;3.10;99.90
21019;DHT22;10667;51.056;3.732;2023-03-01T06:27:46;3.00;99.90
21019;DHT22;10667;51.056;3.732;2023-03-01T06:30:13;3.00;99.90
21019;DHT22;10667;51.056;3.732;2023-03-01T06:32:40;3.00;99.90
21019;DHT22;10667;51.056;3.732;2023-03-01T06:35:13;2.90;99.90
21019;DHT22;10667;51.056;3.732;2023-03-01T06:37:40;2.90;99.90
21019;DHT22;10667;51.056;3.732;2023-03-01T06:40:07;3.00;99.90
21019;DHT22;10667;51.056;3.732;2023-03-01T06:42:36;2.90;99.90
21019;DHT22;10667;51.056;3.732;2023-03-01T06:45:03;2.90;99.90
21019;DHT22;10667;51.056;3.732;2023-03-01T06:47:29;2.90;99.90
21019;DHT22;10667;51.056;3.732;2023-03-01T06:49:55;2.90;99.90
21019;DHT22;10667;51.056;3.732;2023-03-01T06:52:20;2.90;99.90
21019;DHT22;10667;51.056;3.732;2023-03-01T06:54:46;2.90;99.90
21019;DHT22;10667;51.056;3.732;2023-03-01T06:57:12;2.90;99.90
21019;DHT22;10667;51.056;3.732;2023-03-01T06:59:37;2.90;99.90
21019;DHT22;10667;51.056;3.732;2023-03-01T07:02:03;2.90;99.90
21019;DHT22;10667;51.056;3.732;2023-03-01T07:04:29;2.90;99.90
21019;DHT22;10667;51.056;3.732;2023-03-01T07:06:55;3.00;99.90
21019;DHT22;10667;51.056;3.732;2023-03-01T07:09:23;3.00;99.90
21019;DHT22;10667;51.056;3.732;2023-03-01T07:11:48;3.00;99.90
21019;DHT22;10667;51.056;3.732;2023-03-01T07:14:14;3.00;99.90
21019;DHT22;10667;51.056;3.732;2023-03-01T07:16:40;3.20;99.90
21019;DHT22;10667;51.056;3.732;2023-03-01T07:19:06;3.20;99.90
21019;DHT22;10667;51.056;3.732;2023-03-01T07:21:31;3.20;99.90
21019;DHT22;10667;51.056;3.732;2023-03-01T07:23:57;3.20;99.90
21019;DHT22;10667;51.056;3.732;2023-03-01T07:26:23;3.20;99.90
21019;DHT22;10667;51.056;3.732;2023-03-01T07:28:48;3.10;99.90
21019;DHT22;10667;51.056;3.732;2023-03-01T07:31:14;3.10;99.90
21019;DHT22;10667;51.056;3.732;2023-03-01T07:33:40;3.20;99.90
21019;DHT22;10667;51.056;3.732;2023-03-01T07:36:06;3.20;99.90
21019;DHT22;10667;51.056;3.732;2023-03-01T07:38:32;3.20;99.90
21019;DHT22;10667;51.056;3.732;2023-03-01T07:40:59;3.20;99.90
21019;DHT22;10667;51.056;3.732;2023-03-01T07:43:26;3.20;99.90
21019;DHT22;10667;51.056;3.732;2023-03-01T07:45:52;3.30;99.90
21019;DHT22;10667;51.056;3.732;2023-03-01T07:48:17;3.30;99.90
21019;DHT22;10667;51.056;3.732;2023-03-01T07:50:43;3.40;99.90
21019;DHT22;10667;51.056;3.732;2023-03-01T07:53:09;3.40;99.90
21019;DHT22;10667;51.056;3.732;2023-03-01T07:55:36;3.50;99.90
21019;DHT22;10667;51.056;3.732;2023-03-01T07:58:02;3.50;99.90
21019;DHT22;10667;51.056;3.732;2023-03-01T08:00:28;3.50;99.90
21019;DHT22;10667;51.056;3.732;2023-03-01T08:02:53;3.60;99.90
21019;DHT22;10667;51.056;3.732;2023-03-01T08:05:19;3.50;99.90
21019;DHT22;10667;51.056;3.732;2023-03-01T08:07:47;3.60;99.90
21019;DHT22;10667;51.056;3.732;2023-03-01T08:10:13;3.60;99.90
21019;DHT22;10667;51.056;3.732;2023-03-01T08:12:39;3.70;99.90
21019;DHT22;10667;51.056;3.732;2023-03-01T08:15:05;3.70;99.90
21019;DHT22;10667;51.056;3.732;2023-03-01T08:17:30;3.70;99.90
21019;DHT22;10667;51.056;3.732;2023-03-01T08:19:56;3.70;99.90
21019;DHT22;10667;51.056;3.732;2023-03-01T08:22:22;3.80;99.90
21019;DHT22;10667;51.056;3.732;2023-03-01T08:24:47;3.90;99.90
21019;DHT22;10667;51.056;3.732;2023-03-01T08:27:15;4.10;99.90
21019;DHT22;10667;51.056;3.732;2023-03-01T08:29:41;4.10;99.90
21019;DHT22;10667;51.056;3.732;2023-03-01T08:32:06;4.10;99.90
21019;DHT22;10667;51.056;3.732;2023-03-01T08:34:32;4.20;99.90
21019;DHT22;10667;51.056;3.732;2023-03-01T08:37:01;4.10;99.90
21019;DHT22;10667;51.056;3.732;2023-03-01T08:39:27;4.20;99.90
21019;DHT22;10667;51.056;3.732;2023-03-01T08:41:53;4.30;99.90
21019;DHT22;10667;51.056;3.732;2023-03-01T08:44:19;4.30;99.90
21019;DHT22;10667;51.056;3.732;2023-03-01T08:46:46;4.30;99.90
21019;DHT22;10667;51.056;3.732;2023-03-01T08:49:18;4.30;99.90
21019;DHT22;10667;51.056;3.732;2023-03-01T08:51:44;4.40;99.90
21019;DHT22;10667;51.056;3.732;2023-03-01T08:54:13;4.40;99.90
21019;DHT22;10667;51.056;3.732;2023-03-01T08:56:40;4.50;99.90
21019;DHT22;10667;51.056;3.732;2023-03-01T08:59:06;4.50;99.90
21019;DHT22;10667;51.056;3.732;2023-03-01T09:01:32;4.60;99.90
21019;DHT22;10667;51.056;3.732;2023-03-01T09:03:58;4.60;99.90
21019;DHT22;10667;51.056;3.732;2023-03-01T09:06:23;4.70;99.90
21019;DHT22;10667;51.056;3.732;2023-03-01T09:08:50;4.80;99.90
21019;DHT22;10667;51.056;3.732;2023-03-01T09:11:19;4.80;99.90
21019;DHT22;10667;51.056;3.732;2023-03-01T09:13:46;4.80;99.90
21019;DHT22;10667;51.056;3.732;2023-03-01T09:16:13;4.80;99.90
21019;DHT22;10667;51.056;3.732;2023-03-01T09:18:39;4.90;99.90
21019;DHT22;10667;51.056;3.732;2023-03-01T09:21:06;4.90;99.90
21019;DHT22;10667;51.056;3.732;2023-03-01T09:23:41;4.90;99.90
21019;DHT22;10667;51.056;3.732;2023-03-01T09:26:08;5.00;99.90
21019;DHT22;10667;51.056;3.732;2023-03-01T09:28:35;5.00;99.90
21019;DHT22;10667;51.056;3.732;2023-03-01T09:31:02;5.00;99.90
21019;DHT22;10667;51.056;3.732;2023-03-01T09:33:29;4.90;99.90
21019;DHT22;10667;51.056;3.732;2023-03-01T09:36:00;5.00;99.90
21019;DHT22;10667;51.056;3.732;2023-03-01T09:38:26;4.90;99.90
21019;DHT22;10667;51.056;3.732;2023-03-01T09:40:52;5.00;99.90
21019;DHT22;10667;51.056;3.732;2023-03-01T09:45:56;5.20;99.90
21019;DHT22;10667;51.056;3.732;2023-03-01T09:48:26;5.30;99.90
21019;DHT22;10667;51.056;3.732;2023-03-01T09:50:52;5.40;99.90
21019;DHT22;10667;51.056;3.732;2023-03-01T09:53:23;5.40;99.90
21019;DHT22;10667;51.056;3.732;2023-03-01T09:56:14;5.20;99.90
21019;DHT22;10667;51.056;3.732;2023-03-01T10:01:41;5.40;99.90
21019;DHT22;10667;51.056;3.732;2023-03-01T10:09:34;5.50;99.90
21019;DHT22;10667;51.056;3.732;2023-03-01T10:12:02;5.50;99.90
21019;DHT22;10667;51.056;3.732;2023-03-01T10:17:48;5.60;99.90
21019;DHT22;10667;51.056;3.732;2023-03-01T10:20:23;5.70;99.90
21019;DHT22;10667;51.056;3.732;2023-03-01T10:22:50;5.80;99.90
21019;DHT22;10667;51.056;3.732;2023-03-01T10:28:07;5.80;99.90
21019;DHT22;10667;51.056;3.732;2023-03-01T10:30:38;5.80;99.90
21019;DHT22;10667;51.056;3.732;2023-03-01T10:33:15;5.80;99.90
21019;DHT22;10667;51.056;3.732;2023-03-01T10:35:42;5.80;99.90
21019;DHT22;10667;51.056;3.732;2023-03-01T10:38:10;5.90;99.90
21019;DHT22;10667;51.056;3.732;2023-03-01T10:40:49;6.00;99.90
21019;DHT22;10667;51.056;3.732;2023-03-01T10:43:15;6.10;99.90
21019;DHT22;10667;51.056;3.732;2023-03-01T10:45:41;6.20;99.90
21019;DHT22;10667;51.056;3.732;2023-03-01T10:48:19;6.20;99.90
21019;DHT22;10667;51.056;3.732;2023-03-01T10:51:12;6.50;99.90
21019;DHT22;10667;51.056;3.732;2023-03-01T10:53:57;6.40;99.90
21019;DHT22;10667;51.056;3.732;2023-03-01T10:56:22;6.40;99.90
21019;DHT22;10667;51.056;3.732;2023-03-01T10:59:04;6.20;99.90
21019;DHT22;10667;51.056;3.732;2023-03-01T11:01:34;6.00;99.90
21019;DHT22;10667;51.056;3.732;2023-03-01T11:04:12;6.00;99.90
21019;DHT22;10667;51.056;3.732;2023-03-01T11:06:40;6.00;99.90
21019;DHT22;10667;51.056;3.732;2023-03-01T11:09:17;6.10;99.90
21019;DHT22;10667;51.056;3.732;2023-03-01T11:11:44;6.10;99.90
21019;DHT22;10667;51.056;3.732;2023-03-01T11:14:19;6.30;99.90
21019;DHT22;10667;51.056;3.732;2023-03-01T11:16:48;6.30;99.90
21019;DHT22;10667;51.056;3.732;2023-03-01T11:19:18;6.30;99.90
21019;DHT22;10667;51.056;3.732;2023-03-01T11:21:59;6.30;99.90
21019;DHT22;10667;51.056;3.732;2023-03-01T11:30:04;6.50;99.90
21019;DHT22;10667;51.056;3.732;2023-03-01T11:32:43;6.70;99.90
21019;DHT22;10667;51.056;3.732;2023-03-01T11:35:23;6.80;99.90
21019;DHT22;10667;51.056;3.732;2023-03-01T11:38:24;6.90;99.90
21019;DHT22;10667;51.056;3.732;2023-03-01T11:41:13;7.00;99.90
21019;DHT22;10667;51.056;3.732;2023-03-01T11:43:51;6.90;99.90
21019;DHT22;10667;51.056;3.732;2023-03-01T11:51:55;7.10;99.90
21019;DHT22;10667;51.056;3.732;2023-03-01T12:06:10;6.90;99.90
21019;DHT22;10667;51.056;3.732;2023-03-01T12:08:59;7.10;99.90
21019;DHT22;10667;51.056;3.732;2023-03-01T12:11:37;7.20;99.90
21019;DHT22;10667;51.056;3.732;2023-03-01T12:14:21;7.20;99.90
21019;DHT22;10667;51.056;3.732;2023-03-01T12:25:28;7.50;99.90
21019;DHT22;10667;51.056;3.732;2023-03-01T12:38:41;7.90;99.10
21019;DHT22;10667;51.056;3.732;2023-03-01T12:41:35;8.00;98.70
21019;DHT22;10667;51.056;3.732;2023-03-01T12:44:26;8.00;98.70
21019;DHT22;10667;51.056;3.732;2023-03-01T12:47:13;8.10;97.40
21019;DHT22;10667;51.056;3.732;2023-03-01T12:49:53;8.10;97.50
21019;DHT22;10667;51.056;3.732;2023-03-01T12:52:41;8.00;97.70
21019;DHT22;10667;51.056;3.732;2023-03-01T13:00:32;8.00;96.00
21019;DHT22;10667;51.056;3.732;2023-03-01T13:06:04;8.10;97.60
21019;DHT22;10667;51.056;3.732;2023-03-01T13:08:55;8.20;97.20
21019;DHT22;10667;51.056;3.732;2023-03-01T13:11:23;8.20;97.10
21019;DHT22;10667;51.056;3.732;2023-03-01T13:13:49;8.10;96.50
21019;DHT22;10667;51.056;3.732;2023-03-01T13:19:18;8.20;96.10
21019;DHT22;10667;51.056;3.732;2023-03-01T13:21:46;8.30;95.60
21019;DHT22;10667;51.056;3.732;2023-03-01T13:24:37;8.30;95.70
21019;DHT22;10667;51.056;3.732;2023-03-01T13:29:52;8.40;95.30
21019;DHT22;10667;51.056;3.732;2023-03-01T13:32:23;8.30;95.50
21019;DHT22;10667;51.056;3.732;2023-03-01T13:37:22;8.40;96.70
21019;DHT22;10667;51.056;3.732;2023-03-01T13:39:48;8.40;97.00
21019;DHT22;10667;51.056;3.732;2023-03-01T13:45:26;8.40;96.20
21019;DHT22;10667;51.056;3.732;2023-03-01T13:47:57;8.40;95.50
21019;DHT22;10667;51.056;3.732;2023-03-01T13:50:43;8.30;96.40
21019;DHT22;10667;51.056;3.732;2023-03-01T13:53:14;8.30;96.50
21019;DHT22;10667;51.056;3.732;2023-03-01T13:55:44;8.30;96.30
21019;DHT22;10667;51.056;3.732;2023-03-01T13:58:24;8.40;96.80
21019;DHT22;10667;51.056;3.732;2023-03-01T14:01:04;8.40;96.80
21019;DHT22;10667;51.056;3.732;2023-03-01T14:03:39;8.60;97.10
21019;DHT22;10667;51.056;3.732;2023-03-01T14:06:14;8.60;96.80
21019;DHT22;10667;51.056;3.732;2023-03-01T14:08:42;8.80;95.70
21019;DHT22;10667;51.056;3.732;2023-03-01T14:16:31;8.50;96.70
21019;DHT22;10667;51.056;3.732;2023-03-01T14:21:27;8.40;97.30
21019;DHT22;10667;51.056;3.732;2023-03-01T14:23:53;8.40;97.70
21019;DHT22;10667;51.056;3.732;2023-03-01T14:26:22;8.30;98.00
21019;DHT22;10667;51.056;3.732;2023-03-01T14:28:49;8.40;97.40
21019;DHT22;10667;51.056;3.732;2023-03-01T14:31:36;8.40;96.80
21019;DHT22;10667;51.056;3.732;2023-03-01T14:34:02;8.40;96.50
21019;DHT22;10667;51.056;3.732;2023-03-01T14:36:30;8.40;96.80
21019;DHT22;10667;51.056;3.732;2023-03-01T14:38:56;8.50;97.50
21019;DHT22;10667;51.056;3.732;2023-03-01T14:41:32;8.40;97.40
21019;DHT22;10667;51.056;3.732;2023-03-01T14:44:11;8.30;97.70
21019;DHT22;10667;51.056;3.732;2023-03-01T14:46:38;8.30;97.50
21019;DHT22;10667;51.056;3.732;2023-03-01T14:49:11;8.40;97.60
21019;DHT22;10667;51.056;3.732;2023-03-01T14:51:53;8.30;98.20
21019;DHT22;10667;51.056;3.732;2023-03-01T14:57:01;8.40;98.60
21019;DHT22;10667;51.056;3.732;2023-03-01T14:59:27;8.30;98.40
21019;DHT22;10667;51.056;3.732;2023-03-01T15:01:55;8.50;97.80
21019;DHT22;10667;51.056;3.732;2023-03-01T15:04:23;8.60;97.60
21019;DHT22;10667;51.056;3.732;2023-03-01T15:06:54;8.60;97.60
21019;DHT22;10667;51.056;3.732;2023-03-01T15:09:21;8.50;97.80
21019;DHT22;10667;51.056;3.732;2023-03-01T15:11:47;8.50;97.30
21019;DHT22;10667;51.056;3.732;2023-03-01T15:14:39;8.50;97.40
21019;DHT22;10667;51.056;3.732;2023-03-01T15:17:20;8.40;97.50
21019;DHT22;10667;51.056;3.732;2023-03-01T15:19:48;8.40;98.30
21019;DHT22;10667;51.056;3.732;2023-03-01T15:22:25;8.40;98.20
21019;DHT22;10667;51.056;3.732;2023-03-01T15:24:51;8.40;98.30
21019;DHT22;10667;51.056;3.732;2023-03-01T15:27:20;8.40;98.30
21019;DHT22;10667;51.056;3.732;2023-03-01T15:29:49;8.50;97.50
21019;DHT22;10667;51.056;3.732;2023-03-01T15:32:32;8.50;97.10
21019;DHT22;10667;51.056;3.732;2023-03-01T15:34:59;8.50;97.10
21019;DHT22;10667;51.056;3.732;2023-03-01T15:37:47;8.60;97.50
21019;DHT22;10667;51.056;3.732;2023-03-01T15:40:25;8.60;97.20
21019;DHT22;10667;51.056;3.732;2023-03-01T15:43:04;8.50;96.90
21019;DHT22;10667;51.056;3.732;2023-03-01T15:45:31;8.50;97.30
21019;DHT22;10667;51.056;3.732;2023-03-01T15:48:16;8.60;97.00
21019;DHT22;10667;51.056;3.732;2023-03-01T15:50:43;8.70;96.60
21019;DHT22;10667;51.056;3.732;2023-03-01T15:53:13;8.60;96.50
21019;DHT22;10667;51.056;3.732;2023-03-01T15:55:42;8.60;96.40
21019;DHT22;10667;51.056;3.732;2023-03-01T15:58:14;8.50;96.80
21019;DHT22;10667;51.056;3.732;2023-03-01T16:00:42;8.50;97.00
21019;DHT22;10667;51.056;3.732;2023-03-01T16:03:10;8.50;97.00
21019;DHT22;10667;51.056;3.732;2023-03-01T16:05:37;8.60;97.30
21019;DHT22;10667;51.056;3.732;2023-03-01T16:08:03;8.60;97.00
21019;DHT22;10667;51.056;3.732;2023-03-01T16:10:31;8.50;96.60
21019;DHT22;10667;51.056;3.732;2023-03-01T16:12:57;8.50;96.80
21019;DHT22;10667;51.056;3.732;2023-03-01T16:15:29;8.40;97.30
21019;DHT22;10667;51.056;3.732;2023-03-01T16:17:55;8.30;97.80
21019;DHT22;10667;51.056;3.732;2023-03-01T16:20:21;8.30;97.70
21019;DHT22;10667;51.056;3.732;2023-03-01T16:22:47;8.30;97.20
21019;DHT22;10667;51.056;3.732;2023-03-01T16:25:14;8.20;97.30
21019;DHT22;10667;51.056;3.732;2023-03-01T16:27:45;8.20;97.50
21019;DHT22;10667;51.056;3.732;2023-03-01T16:30:12;8.20;97.50
21019;DHT22;10667;51.056;3.732;2023-03-01T16:32:39;8.30;97.80
21019;DHT22;10667;51.056;3.732;2023-03-01T16:35:06;8.40;97.30
21019;DHT22;10667;51.056;3.732;2023-03-01T16:37:33;8.30;97.50
21019;DHT22;10667;51.056;3.732;2023-03-01T16:40:00;8.20;97.80
21019;DHT22;10667;51.056;3.732;2023-03-01T16:42:25;8.20;98.30
21019;DHT22;10667;51.056;3.732;2023-03-01T16:44:55;8.20;98.60
21019;DHT22;10667;51.056;3.732;2023-03-01T16:47:21;8.20;98.70
21019;DHT22;10667;51.056;3.732;2023-03-01T16:49:47;8.30;98.30
21019;DHT22;10667;51.056;3.732;2023-03-01T16:52:13;8.40;98.30
21019;DHT22;10667;51.056;3.732;2023-03-01T16:54:38;8.40;98.00
21019;DHT22;10667;51.056;3.732;2023-03-01T16:57:04;8.50;97.60
21019;DHT22;10667;51.056;3.732;2023-03-01T16:59:30;8.40;97.50
21019;DHT22;10667;51.056;3.732;2023-03-01T17:01:55;8.30;97.90
21019;DHT22;10667;51.056;3.732;2023-03-01T17:04:21;8.30;97.90
21019;DHT22;10667;51.056;3.732;2023-03-01T17:06:47;8.30;97.70
21019;DHT22;10667;51.056;3.732;2023-03-01T17:09:14;8.30;97.90
21019;DHT22;10667;51.056;3.732;2023-03-01T17:11:41;8.30;97.60
21019;DHT22;10667;51.056;3.732;2023-03-01T17:14:07;8.30;97.30
21019;DHT22;10667;51.056;3.732;2023-03-01T17:16:32;8.30;97.40
21019;DHT22;10667;51.056;3.732;2023-03-01T17:18:58;8.20;97.10
21019;DHT22;10667;51.056;3.732;2023-03-01T17:21:24;8.10;97.10
21019;DHT22;10667;51.056;3.732;2023-03-01T17:23:49;8.00;97.10
21019;DHT22;10667;51.056;3.732;2023-03-01T17:26:19;8.00;97.30
21019;DHT22;10667;51.056;3.732;2023-03-01T17:28:45;7.80;97.40
21019;DHT22;10667;51.056;3.732;2023-03-01T17:31:16;7.80;97.30
21019;DHT22;10667;51.056;3.732;2023-03-01T17:33:42;7.90;97.40
21019;DHT22;10667;51.056;3.732;2023-03-01T17:36:08;7.90;97.60
21019;DHT22;10667;51.056;3.732;2023-03-01T17:38:33;7.90;97.60
21019;DHT22;10667;51.056;3.732;2023-03-01T17:41:02;7.80;97.70